Alva, OK

10:14 PM CDT on May 27, 2017 (GMT -0500)
Flynn Street | | Change Station
Active Advisory: Severe Thunderstorm Watch

Elev 1368 ft 36.81 °N, 98.67 °W | Updated 55 seconds ago

Scattered Clouds
Scattered Clouds
82.4 °F
Feels Like 84 °F
N
4.3
Wind Variable Wind from NNW
Gusts 7.5 mph

Today
High -- | Low -- °F
--% Chance of Precip.
Yesterday
High -- | Low -- °F
Precip. -- in
Pressure 29.86 in
Visibility 10.0 miles
Clouds Scattered Clouds 5500 ft
Scattered Clouds 6500 ft
Heat Index 84 °F
Dew Point 63 °F
Humidity 52%
Rainfall 0.00 in
Snow Depth Not available.
6:19 AM 8:45 PM
Waxing Crescent, 8% visible
METAR KAVK 280255Z AUTO 35011KT 10SM SCT055 SCT065 23/16 A2986 RMK AO2
Pressure 29.86 in
Visibility 10.0 miles
Clouds Scattered Clouds 5500 ft
Scattered Clouds 6500 ft
Heat Index 84 °F
Dew Point 63 °F
Humidity 52%
Rainfall 0.00 in
Snow Depth Not available.
6:19 AM 8:45 PM
Waxing Crescent, 8% visible
METAR KAVK 280255Z AUTO 35011KT 10SM SCT055 SCT065 23/16 A2986 RMK AO2

Get Your Daily Forecast Email!

Thanks for signing up!

Be on the lookout for a verification email in your inbox.

You'll start receiving severe weather alerts in your inbox..

×

10-Day Weather Forecast

Almanac

Astronomy

May. 27, 2017 Rise Set
Actual Time
Civil Twilight
Nautical Twilight
Astronomical Twilight
Moon
Length of Visible Light
Length of Day
Tomorrow will be .
, % of the Moon is Illuminated

Today's Extremes

State Highs State Lows

Community

WunderPhotos

Category 6

Welcome to Category 6. This is the collective home for Weather Underground's featured writeups by Dr. Jeff Masters (right), Bob Henson (left), Chris Burt, and other regular contributors.

Nearby

Air Quality

  Air Quality AQ Index Pollutant
Not available.

Snow Depth

Station Depth Elevation

Earthquake Activity

City Distance Mag. Time & Date
Minimum magnitude displayed is 2.5.

Coastal Water Temperatures

Place Temperature

Stations

Nearby Weather Stations

Station Location Temp. Windchill Dew Point Humidity Wind Precip. Elev Updated Type
                   

Watches & Warnings

Severe Thunderstorm Watch
Issued: 10:03 PM CDT May. 27, 2017 – National Weather Service

Severe Thunderstorm Watch 286 remains in effect until 400 am CDT
for the following locations


OK
. Oklahoma counties included are

Beckham Blaine Custer
Dewey Ellis Harper
major Roger Mills Woods
Woodward